sensor_id;sensor_type;location;lat;lon;timestamp;P1;durP1;ratioP1;P2;durP2;ratioP2
61570;SDS011;47463;49.884;10.010;2023-03-12T00:00:00;3.9;;;8.4;;
61570;SDS011;47463;49.884;10.010;2023-03-12T00:05:00;3.5;;;8.6;;
61570;SDS011;47463;49.884;10.010;2023-03-12T00:10:00;5.2;;;9.2;;
61570;SDS011;47463;49.884;10.010;2023-03-12T00:15:00;4.5;;;8.8;;
61570;SDS011;47463;49.884;10.010;2023-03-12T00:20:00;5.2;;;8.6;;
61570;SDS011;47463;49.884;10.010;2023-03-12T00:25:00;5.2;;;8.6;;
61570;SDS011;47463;49.884;10.010;2023-03-12T00:30:00;5;;;8.6;;
61570;SDS011;47463;49.884;10.010;2023-03-12T00:35:00;4.1;;;8.7;;
61570;SDS011;47463;49.884;10.010;2023-03-12T00:40:00;3.2;;;8.6;;
61570;SDS011;47463;49.884;10.010;2023-03-12T00:45:00;6.1;;;8.7;;
61570;SDS011;47463;49.884;10.010;2023-03-12T00:50:00;3.7;;;8.6;;
61570;SDS011;47463;49.884;10.010;2023-03-12T00:55:00;3.7;;;8.6;;
61570;SDS011;47463;49.884;10.010;2023-03-12T01:00:00;13.3;;;16.9;;
61570;SDS011;47463;49.884;10.010;2023-03-12T01:05:00;6;;;9.9;;
61570;SDS011;47463;49.884;10.010;2023-03-12T01:10:00;5.9;;;9.1;;
61570;SDS011;47463;49.884;10.010;2023-03-12T01:15:00;3.7;;;8.7;;
61570;SDS011;47463;49.884;10.010;2023-03-12T01:20:00;5.6;;;8.9;;
61570;SDS011;47463;49.884;10.010;2023-03-12T01:25:00;5.6;;;8.9;;
61570;SDS011;47463;49.884;10.010;2023-03-12T01:30:00;6.7;;;9;;
61570;SDS011;47463;49.884;10.010;2023-03-12T01:35:00;4.4;;;9.2;;
61570;SDS011;47463;49.884;10.010;2023-03-12T01:40:00;5.1;;;9;;
61570;SDS011;47463;49.884;10.010;2023-03-12T01:45:00;5.5;;;9.1;;
61570;SDS011;47463;49.884;10.010;2023-03-12T01:50:00;3.8;;;8.6;;
61570;SDS011;47463;49.884;10.010;2023-03-12T01:55:00;3.8;;;8.6;;
61570;SDS011;47463;49.884;10.010;2023-03-12T02:00:00;4.7;;;9;;
61570;SDS011;47463;49.884;10.010;2023-03-12T02:05:02;3.5;;;9.1;;
61570;SDS011;47463;49.884;10.010;2023-03-12T02:10:00;6.3;;;9.4;;
61570;SDS011;47463;49.884;10.010;2023-03-12T02:15:00;7.2;;;9.5;;
61570;SDS011;47463;49.884;10.010;2023-03-12T02:20:00;5.8;;;9.2;;
61570;SDS011;47463;49.884;10.010;2023-03-12T02:25:01;5.8;;;9.2;;
61570;SDS011;47463;49.884;10.010;2023-03-12T02:30:00;4.1;;;9;;
61570;SDS011;47463;49.884;10.010;2023-03-12T02:35:00;6.3;;;9.4;;
61570;SDS011;47463;49.884;10.010;2023-03-12T02:40:01;4.8;;;9.6;;
61570;SDS011;47463;49.884;10.010;2023-03-12T02:45:00;4.3;;;9.2;;
61570;SDS011;47463;49.884;10.010;2023-03-12T02:50:00;7.2;;;10.3;;
61570;SDS011;47463;49.884;10.010;2023-03-12T02:55:00;7.2;;;10.3;;
61570;SDS011;47463;49.884;10.010;2023-03-12T03:00:00;4.4;;;9.3;;
61570;SDS011;47463;49.884;10.010;2023-03-12T03:05:00;5.1;;;9.4;;
61570;SDS011;47463;49.884;10.010;2023-03-12T03:10:00;4.9;;;9.4;;
61570;SDS011;47463;49.884;10.010;2023-03-12T03:15:00;5.6;;;9.2;;
61570;SDS011;47463;49.884;10.010;2023-03-12T03:20:00;5.6;;;9.2;;
61570;SDS011;47463;49.884;10.010;2023-03-12T03:25:00;5.6;;;9.2;;
61570;SDS011;47463;49.884;10.010;2023-03-12T03:30:00;6;;;9.3;;
61570;SDS011;47463;49.884;10.010;2023-03-12T03:35:00;7.9;;;9.6;;
61570;SDS011;47463;49.884;10.010;2023-03-12T03:40:00;7.4;;;9.8;;
61570;SDS011;47463;49.884;10.010;2023-03-12T03:45:00;7.6;;;10.2;;
61570;SDS011;47463;49.884;10.010;2023-03-12T03:50:00;6.4;;;9.6;;
61570;SDS011;47463;49.884;10.010;2023-03-12T03:55:00;6.4;;;9.6;;
61570;SDS011;47463;49.884;10.010;2023-03-12T04:00:00;6.4;;;9.4;;
61570;SDS011;47463;49.884;10.010;2023-03-12T04:05:00;5.7;;;9.8;;
61570;SDS011;47463;49.884;10.010;2023-03-12T04:10:00;6.1;;;9.9;;
61570;SDS011;47463;49.884;10.010;2023-03-12T04:15:00;7.5;;;10.4;;
61570;SDS011;47463;49.884;10.010;2023-03-12T04:20:00;7.8;;;10.9;;
61570;SDS011;47463;49.884;10.010;2023-03-12T04:25:00;7.8;;;10.9;;
61570;SDS011;47463;49.884;10.010;2023-03-12T04:30:00;11.1;;;11.7;;
61570;SDS011;47463;49.884;10.010;2023-03-12T04:35:00;8.1;;;11;;
61570;SDS011;47463;49.884;10.010;2023-03-12T04:40:00;6.1;;;10.5;;
61570;SDS011;47463;49.884;10.010;2023-03-12T04:45:00;9.5;;;11.5;;
61570;SDS011;47463;49.884;10.010;2023-03-12T04:50:00;10.5;;;12;;
61570;SDS011;47463;49.884;10.010;2023-03-12T04:55:00;10.5;;;12;;
61570;SDS011;47463;49.884;10.010;2023-03-12T05:00:00;13.4;;;12.7;;
61570;SDS011;47463;49.884;10.010;2023-03-12T05:05:00;13.4;;;13.5;;
61570;SDS011;47463;49.884;10.010;2023-03-12T05:10:00;15.2;;;12.4;;
61570;SDS011;47463;49.884;10.010;2023-03-12T05:15:00;11.1;;;12;;
61570;SDS011;47463;49.884;10.010;2023-03-12T05:20:00;11.9;;;12.2;;
61570;SDS011;47463;49.884;10.010;2023-03-12T05:25:00;11.9;;;12.2;;
61570;SDS011;47463;49.884;10.010;2023-03-12T05:30:00;13.4;;;13.4;;
61570;SDS011;47463;49.884;10.010;2023-03-12T05:35:00;12.6;;;12.8;;
61570;SDS011;47463;49.884;10.010;2023-03-12T05:40:00;11.3;;;13.1;;
61570;SDS011;47463;49.884;10.010;2023-03-12T05:45:00;15.3;;;13.4;;
61570;SDS011;47463;49.884;10.010;2023-03-12T05:50:00;13.2;;;13.7;;
61570;SDS011;47463;49.884;10.010;2023-03-12T05:55:00;13.2;;;13.7;;
61570;SDS011;47463;49.884;10.010;2023-03-12T06:00:00;11.9;;;13.7;;
61570;SDS011;47463;49.884;10.010;2023-03-12T06:05:00;13.1;;;13.3;;
61570;SDS011;47463;49.884;10.010;2023-03-12T06:10:00;10.8;;;13;;
61570;SDS011;47463;49.884;10.010;2023-03-12T06:15:00;15.7;;;15;;
61570;SDS011;47463;49.884;10.010;2023-03-12T06:20:00;13.9;;;15.4;;
61570;SDS011;47463;49.884;10.010;2023-03-12T06:25:00;13.9;;;15.4;;
61570;SDS011;47463;49.884;10.010;2023-03-12T06:30:00;14.1;;;14.7;;
61570;SDS011;47463;49.884;10.010;2023-03-12T06:35:00;14.8;;;15.6;;
61570;SDS011;47463;49.884;10.010;2023-03-12T06:40:00;16.8;;;16.2;;
61570;SDS011;47463;49.884;10.010;2023-03-12T06:45:00;15.6;;;15.4;;
61570;SDS011;47463;49.884;10.010;2023-03-12T06:50:00;15.1;;;14.5;;
61570;SDS011;47463;49.884;10.010;2023-03-12T06:55:00;15.1;;;14.5;;
61570;SDS011;47463;49.884;10.010;2023-03-12T07:00:00;15.5;;;15.3;;
61570;SDS011;47463;49.884;10.010;2023-03-12T07:05:00;15.6;;;15.3;;
61570;SDS011;47463;49.884;10.010;2023-03-12T07:10:00;11.3;;;13.7;;
61570;SDS011;47463;49.884;10.010;2023-03-12T07:15:00;14.3;;;14.1;;
61570;SDS011;47463;49.884;10.010;2023-03-12T07:20:00;11.8;;;14;;
61570;SDS011;47463;49.884;10.010;2023-03-12T07:25:00;11.8;;;14;;
61570;SDS011;47463;49.884;10.010;2023-03-12T07:30:00;15.1;;;14.3;;
61570;SDS011;47463;49.884;10.010;2023-03-12T07:35:00;13.8;;;14.3;;
61570;SDS011;47463;49.884;10.010;2023-03-12T07:40:00;16.9;;;15.1;;
61570;SDS011;47463;49.884;10.010;2023-03-12T07:45:00;13.1;;;14.1;;
61570;SDS011;47463;49.884;10.010;2023-03-12T07:50:00;14;;;14.4;;
61570;SDS011;47463;49.884;10.010;2023-03-12T07:55:00;14;;;14.4;;
61570;SDS011;47463;49.884;10.010;2023-03-12T08:00:00;17.2;;;14.9;;
61570;SDS011;47463;49.884;10.010;2023-03-12T08:05:00;15.8;;;15.3;;
61570;SDS011;47463;49.884;10.010;2023-03-12T08:10:00;17.6;;;16.5;;
61570;SDS011;47463;49.884;10.010;2023-03-12T08:15:00;16.2;;;15.1;;
61570;SDS011;47463;49.884;10.010;2023-03-12T08:20:00;12.5;;;14.5;;
61570;SDS011;47463;49.884;10.010;2023-03-12T08:25:00;12.5;;;14.5;;
61570;SDS011;47463;49.884;10.010;2023-03-12T08:30:00;12.4;;;14.3;;
61570;SDS011;47463;49.884;10.010;2023-03-12T08:35:00;13.4;;;14.3;;
61570;SDS011;47463;49.884;10.010;2023-03-12T08:40:00;12.4;;;14.1;;
61570;SDS011;47463;49.884;10.010;2023-03-12T08:45:00;13.5;;;14.2;;
61570;SDS011;47463;49.884;10.010;2023-03-12T08:50:00;13.6;;;13.3;;
61570;SDS011;47463;49.884;10.010;2023-03-12T08:55:00;13.6;;;13.3;;
61570;SDS011;47463;49.884;10.010;2023-03-12T09:00:00;9;;;12.2;;
61570;SDS011;47463;49.884;10.010;2023-03-12T09:05:00;9.9;;;12.4;;
61570;SDS011;47463;49.884;10.010;2023-03-12T09:10:00;9;;;11.7;;
61570;SDS011;47463;49.884;10.010;2023-03-12T09:15:00;8.7;;;12;;
61570;SDS011;47463;49.884;10.010;2023-03-12T09:20:00;10.3;;;12.1;;
61570;SDS011;47463;49.884;10.010;2023-03-12T09:25:00;10.3;;;12.1;;
61570;SDS011;47463;49.884;10.010;2023-03-12T09:30:00;9.6;;;12.2;;
61570;SDS011;47463;49.884;10.010;2023-03-12T09:35:00;10;;;12.1;;
61570;SDS011;47463;49.884;10.010;2023-03-12T09:40:00;10;;;11.8;;
61570;SDS011;47463;49.884;10.010;2023-03-12T09:45:00;7.5;;;11.5;;
61570;SDS011;47463;49.884;10.010;2023-03-12T09:50:00;10.4;;;11.8;;
61570;SDS011;47463;49.884;10.010;2023-03-12T09:55:01;10.4;;;11.8;;
61570;SDS011;47463;49.884;10.010;2023-03-12T10:00:00;10.3;;;12.2;;
61570;SDS011;47463;49.884;10.010;2023-03-12T10:05:00;13.1;;;12.7;;
61570;SDS011;47463;49.884;10.010;2023-03-12T10:10:02;11.9;;;12.9;;
61570;SDS011;47463;49.884;10.010;2023-03-12T10:15:02;12.6;;;13.2;;
61570;SDS011;47463;49.884;10.010;2023-03-12T10:20:03;12.4;;;13.2;;
61570;SDS011;47463;49.884;10.010;2023-03-12T10:25:01;12.4;;;13.2;;
61570;SDS011;47463;49.884;10.010;2023-03-12T10:30:00;13.9;;;12.8;;
61570;SDS011;47463;49.884;10.010;2023-03-12T10:35:01;10.9;;;12.7;;
61570;SDS011;47463;49.884;10.010;2023-03-12T10:40:00;11;;;13.2;;
61570;SDS011;47463;49.884;10.010;2023-03-12T10:45:05;11.5;;;12.9;;
61570;SDS011;47463;49.884;10.010;2023-03-12T10:50:16;10.4;;;12.9;;
61570;SDS011;47463;49.884;10.010;2023-03-12T10:55:00;10.4;;;12.9;;
61570;SDS011;47463;49.884;10.010;2023-03-12T11:00:03;11.1;;;13.1;;
61570;SDS011;47463;49.884;10.010;2023-03-12T11:05:00;11.7;;;13.3;;
61570;SDS011;47463;49.884;10.010;2023-03-12T11:10:12;12.4;;;13.3;;
61570;SDS011;47463;49.884;10.010;2023-03-12T11:15:00;13.1;;;13.8;;
61570;SDS011;47463;49.884;10.010;2023-03-12T11:20:00;10.8;;;13;;
61570;SDS011;47463;49.884;10.010;2023-03-12T11:25:00;10.8;;;13;;
61570;SDS011;47463;49.884;10.010;2023-03-12T11:30:00;12.7;;;13.4;;
61570;SDS011;47463;49.884;10.010;2023-03-12T11:35:00;12.5;;;13;;
61570;SDS011;47463;49.884;10.010;2023-03-12T11:40:04;13.3;;;13.1;;
61570;SDS011;47463;49.884;10.010;2023-03-12T11:45:01;12.7;;;13.1;;
61570;SDS011;47463;49.884;10.010;2023-03-12T11:50:02;13.3;;;13.4;;
61570;SDS011;47463;49.884;10.010;2023-03-12T11:55:16;13.3;;;13.4;;
61570;SDS011;47463;49.884;10.010;2023-03-12T12:00:03;12.5;;;13.3;;
61570;SDS011;47463;49.884;10.010;2023-03-12T12:05:06;14.2;;;14.1;;
61570;SDS011;47463;49.884;10.010;2023-03-12T12:10:00;12.2;;;13.7;;
61570;SDS011;47463;49.884;10.010;2023-03-12T12:15:02;14.1;;;14.5;;
61570;SDS011;47463;49.884;10.010;2023-03-12T12:20:02;13.4;;;13.3;;
61570;SDS011;47463;49.884;10.010;2023-03-12T12:25:09;13.4;;;13.3;;
61570;SDS011;47463;49.884;10.010;2023-03-12T12:30:03;12.9;;;14.2;;
61570;SDS011;47463;49.884;10.010;2023-03-12T12:35:03;15;;;14.2;;
61570;SDS011;47463;49.884;10.010;2023-03-12T12:40:02;13;;;13.9;;
61570;SDS011;47463;49.884;10.010;2023-03-12T12:45:00;15.5;;;14.2;;
61570;SDS011;47463;49.884;10.010;2023-03-12T12:50:00;13.2;;;14;;
61570;SDS011;47463;49.884;10.010;2023-03-12T12:55:02;13.2;;;14;;
61570;SDS011;47463;49.884;10.010;2023-03-12T13:00:02;13.5;;;14;;
61570;SDS011;47463;49.884;10.010;2023-03-12T13:05:00;12.6;;;13.2;;
61570;SDS011;47463;49.884;10.010;2023-03-12T13:10:00;12.1;;;13.1;;
61570;SDS011;47463;49.884;10.010;2023-03-12T13:15:00;9.8;;;13.2;;
61570;SDS011;47463;49.884;10.010;2023-03-12T13:20:06;10.2;;;12.1;;
61570;SDS011;47463;49.884;10.010;2023-03-12T13:25:02;10.2;;;12.1;;
61570;SDS011;47463;49.884;10.010;2023-03-12T13:30:10;11.1;;;12.7;;
61570;SDS011;47463;49.884;10.010;2023-03-12T13:35:00;10.4;;;12.9;;
61570;SDS011;47463;49.884;10.010;2023-03-12T13:40:00;11;;;13.1;;
61570;SDS011;47463;49.884;10.010;2023-03-12T13:45:10;9.9;;;12.4;;
61570;SDS011;47463;49.884;10.010;2023-03-12T13:50:00;10.3;;;12.6;;
61570;SDS011;47463;49.884;10.010;2023-03-12T13:55:00;10.3;;;12.6;;
61570;SDS011;47463;49.884;10.010;2023-03-12T14:00:00;10;;;12.8;;
61570;SDS011;47463;49.884;10.010;2023-03-12T14:05:01;8.1;;;11.5;;
61570;SDS011;47463;49.884;10.010;2023-03-12T14:10:03;8.4;;;10.7;;
61570;SDS011;47463;49.884;10.010;2023-03-12T14:15:02;7.7;;;10.8;;
61570;SDS011;47463;49.884;10.010;2023-03-12T14:20:00;8.4;;;10.8;;
61570;SDS011;47463;49.884;10.010;2023-03-12T14:25:00;8.4;;;10.8;;
61570;SDS011;47463;49.884;10.010;2023-03-12T14:30:03;9.4;;;10.5;;
61570;SDS011;47463;49.884;10.010;2023-03-12T14:35:02;8.8;;;10.7;;
61570;SDS011;47463;49.884;10.010;2023-03-12T14:40:00;8.6;;;10.4;;
61570;SDS011;47463;49.884;10.010;2023-03-12T14:45:00;9.5;;;10.7;;
61570;SDS011;47463;49.884;10.010;2023-03-12T14:50:00;11;;;11.1;;
61570;SDS011;47463;49.884;10.010;2023-03-12T14:55:00;11;;;11.1;;
61570;SDS011;47463;49.884;10.010;2023-03-12T15:00:00;8.6;;;10.4;;
61570;SDS011;47463;49.884;10.010;2023-03-12T15:05:00;8.4;;;10.6;;
61570;SDS011;47463;49.884;10.010;2023-03-12T15:10:00;8.6;;;10.6;;
61570;SDS011;47463;49.884;10.010;2023-03-12T15:15:00;11.3;;;10.4;;
61570;SDS011;47463;49.884;10.010;2023-03-12T15:20:00;10.5;;;10.3;;
61570;SDS011;47463;49.884;10.010;2023-03-12T15:25:00;10.5;;;10.3;;
61570;SDS011;47463;49.884;10.010;2023-03-12T15:30:20;7.7;;;10.2;;
61570;SDS011;47463;49.884;10.010;2023-03-12T15:35:00;9.3;;;10;;
61570;SDS011;47463;49.884;10.010;2023-03-12T15:40:00;10.8;;;10.3;;
61570;SDS011;47463;49.884;10.010;2023-03-12T15:45:00;7.9;;;10.2;;
61570;SDS011;47463;49.884;10.010;2023-03-12T15:50:02;8.1;;;10.2;;
61570;SDS011;47463;49.884;10.010;2023-03-12T15:55:01;8.1;;;10.2;;
61570;SDS011;47463;49.884;10.010;2023-03-12T16:00:13;11.6;;;10.2;;
61570;SDS011;47463;49.884;10.010;2023-03-12T16:05:00;11.3;;;10.7;;
61570;SDS011;47463;49.884;10.010;2023-03-12T16:10:00;9.5;;;10;;
61570;SDS011;47463;49.884;10.010;2023-03-12T16:15:00;7.8;;;9.9;;
61570;SDS011;47463;49.884;10.010;2023-03-12T16:20:00;8.7;;;10;;
61570;SDS011;47463;49.884;10.010;2023-03-12T16:25:00;8.7;;;10;;
61570;SDS011;47463;49.884;10.010;2023-03-12T16:30:00;8.5;;;10.5;;
61570;SDS011;47463;49.884;10.010;2023-03-12T16:35:00;9.1;;;10.4;;
61570;SDS011;47463;49.884;10.010;2023-03-12T16:40:00;7.7;;;10.7;;
61570;SDS011;47463;49.884;10.010;2023-03-12T16:45:00;8.9;;;10.4;;
61570;SDS011;47463;49.884;10.010;2023-03-12T16:50:00;10.6;;;10.8;;
61570;SDS011;47463;49.884;10.010;2023-03-12T16:55:00;10.6;;;10.8;;
61570;SDS011;47463;49.884;10.010;2023-03-12T17:00:00;9.1;;;10.6;;
61570;SDS011;47463;49.884;10.010;2023-03-12T17:05:00;12.2;;;11.8;;
61570;SDS011;47463;49.884;10.010;2023-03-12T17:10:00;11;;;11.4;;
61570;SDS011;47463;49.884;10.010;2023-03-12T17:15:00;13.4;;;12.5;;
61570;SDS011;47463;49.884;10.010;2023-03-12T17:20:00;13.4;;;12.5;;
61570;SDS011;47463;49.884;10.010;2023-03-12T17:25:00;13.4;;;12.5;;
61570;SDS011;47463;49.884;10.010;2023-03-12T17:30:00;13.3;;;12.1;;
61570;SDS011;47463;49.884;10.010;2023-03-12T17:35:00;12.7;;;12.6;;
61570;SDS011;47463;49.884;10.010;2023-03-12T17:40:00;14.9;;;11.9;;
61570;SDS011;47463;49.884;10.010;2023-03-12T17:45:00;10.3;;;11.7;;
61570;SDS011;47463;49.884;10.010;2023-03-12T17:50:00;14.9;;;12.2;;
61570;SDS011;47463;49.884;10.010;2023-03-12T17:55:00;14.9;;;12.2;;
61570;SDS011;47463;49.884;10.010;2023-03-12T18:00:00;12.9;;;12;;
61570;SDS011;47463;49.884;10.010;2023-03-12T18:05:00;17.2;;;11.8;;
61570;SDS011;47463;49.884;10.010;2023-03-12T18:10:00;19.5;;;12.2;;
61570;SDS011;47463;49.884;10.010;2023-03-12T18:15:00;16.3;;;11.5;;
61570;SDS011;47463;49.884;10.010;2023-03-12T18:20:00;13.6;;;11.6;;
61570;SDS011;47463;49.884;10.010;2023-03-12T18:25:00;13.6;;;11.6;;
61570;SDS011;47463;49.884;10.010;2023-03-12T18:30:00;12.7;;;11.4;;
61570;SDS011;47463;49.884;10.010;2023-03-12T18:35:00;13.4;;;11.3;;
61570;SDS011;47463;49.884;10.010;2023-03-12T18:40:00;14.3;;;10.9;;
61570;SDS011;47463;49.884;10.010;2023-03-12T18:45:00;14.5;;;10.9;;
61570;SDS011;47463;49.884;10.010;2023-03-12T18:50:00;12.6;;;10.5;;
61570;SDS011;47463;49.884;10.010;2023-03-12T18:55:00;12.6;;;10.5;;
61570;SDS011;47463;49.884;10.010;2023-03-12T19:00:00;12.1;;;10.1;;
61570;SDS011;47463;49.884;10.010;2023-03-12T19:05:00;17.5;;;9.8;;
61570;SDS011;47463;49.884;10.010;2023-03-12T19:10:00;12.7;;;9.7;;
61570;SDS011;47463;49.884;10.010;2023-03-12T19:15:00;13.3;;;9.6;;
61570;SDS011;47463;49.884;10.010;2023-03-12T19:20:00;16.3;;;10.6;;
61570;SDS011;47463;49.884;10.010;2023-03-12T19:25:00;16.3;;;10.6;;
61570;SDS011;47463;49.884;10.010;2023-03-12T19:30:00;12.9;;;9.7;;
61570;SDS011;47463;49.884;10.010;2023-03-12T19:35:00;12.8;;;10;;
61570;SDS011;47463;49.884;10.010;2023-03-12T19:40:00;16.9;;;10.1;;
61570;SDS011;47463;49.884;10.010;2023-03-12T19:45:00;13.7;;;10.3;;
61570;SDS011;47463;49.884;10.010;2023-03-12T19:50:00;16.2;;;10.2;;
61570;SDS011;47463;49.884;10.010;2023-03-12T19:55:00;16.2;;;10.2;;
61570;SDS011;47463;49.884;10.010;2023-03-12T20:00:00;12.6;;;9.6;;
61570;SDS011;47463;49.884;10.010;2023-03-12T20:05:00;13.7;;;9.7;;
61570;SDS011;47463;49.884;10.010;2023-03-12T20:10:00;14.3;;;9.7;;
61570;SDS011;47463;49.884;10.010;2023-03-12T20:15:00;13.8;;;10;;
61570;SDS011;47463;49.884;10.010;2023-03-12T20:20:00;15.9;;;9.9;;
61570;SDS011;47463;49.884;10.010;2023-03-12T20:25:00;15.9;;;9.9;;
61570;SDS011;47463;49.884;10.010;2023-03-12T20:30:00;16.9;;;9.6;;
61570;SDS011;47463;49.884;10.010;2023-03-12T20:35:00;15.4;;;9.8;;
61570;SDS011;47463;49.884;10.010;2023-03-12T20:40:00;15.9;;;10;;
61570;SDS011;47463;49.884;10.010;2023-03-12T20:45:00;13.8;;;10.1;;
61570;SDS011;47463;49.884;10.010;2023-03-12T20:50:00;14.2;;;10.1;;
61570;SDS011;47463;49.884;10.010;2023-03-12T20:55:00;14.2;;;10.1;;
61570;SDS011;47463;49.884;10.010;2023-03-12T21:00:00;14.8;;;9.6;;
61570;SDS011;47463;49.884;10.010;2023-03-12T21:05:00;17.7;;;9.8;;
61570;SDS011;47463;49.884;10.010;2023-03-12T21:10:00;14.3;;;9.8;;
61570;SDS011;47463;49.884;10.010;2023-03-12T21:15:00;11;;;9.4;;
61570;SDS011;47463;49.884;10.010;2023-03-12T21:20:00;14.2;;;9.2;;
61570;SDS011;47463;49.884;10.010;2023-03-12T21:25:00;14.2;;;9.2;;
61570;SDS011;47463;49.884;10.010;2023-03-12T21:30:00;16;;;9.7;;
61570;SDS011;47463;49.884;10.010;2023-03-12T21:35:00;17.4;;;10.3;;
61570;SDS011;47463;49.884;10.010;2023-03-12T21:40:00;13.1;;;9.4;;
61570;SDS011;47463;49.884;10.010;2023-03-12T21:45:00;11.6;;;9.5;;
61570;SDS011;47463;49.884;10.010;2023-03-12T21:50:00;14.8;;;9.5;;
61570;SDS011;47463;49.884;10.010;2023-03-12T21:55:00;14.8;;;9.5;;
61570;SDS011;47463;49.884;10.010;2023-03-12T22:00:00;10.2;;;9.2;;
61570;SDS011;47463;49.884;10.010;2023-03-12T22:05:00;16.6;;;9.7;;
61570;SDS011;47463;49.884;10.010;2023-03-12T22:10:00;12.5;;;9.5;;
61570;SDS011;47463;49.884;10.010;2023-03-12T22:15:00;12.7;;;9.4;;
61570;SDS011;47463;49.884;10.010;2023-03-12T22:20:00;14.3;;;9.2;;
61570;SDS011;47463;49.884;10.010;2023-03-12T22:25:00;14.3;;;9.2;;
61570;SDS011;47463;49.884;10.010;2023-03-12T22:30:00;18;;;9.7;;
61570;SDS011;47463;49.884;10.010;2023-03-12T22:35:00;15.8;;;9.5;;
61570;SDS011;47463;49.884;10.010;2023-03-12T22:40:00;14.5;;;9.4;;
61570;SDS011;47463;49.884;10.010;2023-03-12T22:45:00;12.8;;;9.1;;
61570;SDS011;47463;49.884;10.010;2023-03-12T22:50:00;13.5;;;9.5;;
61570;SDS011;47463;49.884;10.010;2023-03-12T22:55:00;13.5;;;9.5;;
61570;SDS011;47463;49.884;10.010;2023-03-12T23:00:00;16.3;;;9.5;;
61570;SDS011;47463;49.884;10.010;2023-03-12T23:05:00;11.6;;;9.5;;
61570;SDS011;47463;49.884;10.010;2023-03-12T23:10:00;13.3;;;9.4;;
61570;SDS011;47463;49.884;10.010;2023-03-12T23:15:00;16.2;;;9.5;;
61570;SDS011;47463;49.884;10.010;2023-03-12T23:20:00;13.3;;;8.9;;
61570;SDS011;47463;49.884;10.010;2023-03-12T23:25:00;13.3;;;8.9;;
61570;SDS011;47463;49.884;10.010;2023-03-12T23:30:00;11.4;;;8.8;;
61570;SDS011;47463;49.884;10.010;2023-03-12T23:35:00;16.5;;;9.6;;
61570;SDS011;47463;49.884;10.010;2023-03-12T23:40:00;15.9;;;9.5;;
61570;SDS011;47463;49.884;10.010;2023-03-12T23:45:00;12.4;;;9.4;;
61570;SDS011;47463;49.884;10.010;2023-03-12T23:50:00;16.1;;;9.5;;
61570;SDS011;47463;49.884;10.010;2023-03-12T23:55:00;16.1;;;9.5;;
